Time;durP1;ratioP1;P1;durP2;ratioP2;P2;SDS_P1;SDS_P2;PMS_P1;PMS_P2;Temp;Humidity;BMP_temperature;BMP_pressure;BME280_temperature;BME280_humidity;BME280_pressure;Samples;Min_cycle;Max_cycle;Signal;HPM_P1;HPM_P2
2023/10/05 00:01:12;;;;;;;5.00;1.03;;;;;;;16.82;73.55;100932.94;5074881;28;20178;-80
2023/10/05 00:03:39;;;;;;;1.23;1.13;;;;;;;16.92;73.50;100938.03;5073982;28;20206;-78
2023/10/05 00:06:14;;;;;;;7.13;1.07;;;;;;;17.16;72.84;100953.00;5073499;28;20186;-79
2023/10/05 00:08:44;;;;;;;6.30;2.43;;;;;;;17.04;72.94;100939.19;5073524;28;20182;-78
2023/10/05 00:11:29;;;;;;;3.97;2.47;;;;;;;16.99;73.35;100939.41;5074311;28;20185;-79
2023/10/05 00:13:59;;;;;;;1.20;0.90;;;;;;;16.97;73.72;100933.44;5074636;28;20225;-79
2023/10/05 00:16:37;;;;;;;0.20;0.20;;;;;;;16.93;73.79;100936.88;5075522;28;20544;-79
2023/10/05 00:19:04;;;;;;;1.30;0.93;;;;;;;16.81;73.87;100930.53;5074223;28;20182;-79
2023/10/05 00:21:35;;;;;;;2.27;1.33;;;;;;;16.88;73.92;100933.53;5074130;28;20221;-79
2023/10/05 00:24:02;;;;;;;2.63;1.70;;;;;;;16.87;73.48;100927.19;5074761;28;20194;-78
2023/10/05 00:26:29;;;;;;;1.60;0.93;;;;;;;16.78;74.32;100921.00;5074360;28;20175;-79
2023/10/05 00:31:41;;;;;;;3.70;1.70;;;;;;;16.90;74.05;100917.44;5052774;28;20205;-79
2023/10/05 00:34:24;;;;;;;2.80;2.70;;;;;;;17.03;74.17;100934.81;5074502;28;20576;-79
2023/10/05 00:36:50;;;;;;;2.63;1.67;;;;;;;16.66;74.70;100907.94;5073149;28;20635;-78
2023/10/05 00:39:20;;;;;;;3.83;2.53;;;;;;;16.54;74.81;100899.63;5072792;28;20174;-79
2023/10/05 00:41:49;;;;;;;14.00;3.03;;;;;;;16.54;74.79;100899.63;5073666;28;20265;-80
2023/10/05 00:44:14;;;;;;;2.87;0.93;;;;;;;16.66;75.01;100907.13;5075692;28;20749;-79
2023/10/05 00:46:48;;;;;;;8.83;1.50;;;;;;;17.11;73.45;100922.88;5076273;28;20182;-80
2023/10/05 00:49:19;;;;;;;0.50;0.50;;;;;;;16.95;73.63;100914.47;5075759;28;20179;-80
2023/10/05 00:54:29;;;;;;;10.70;2.77;;;;;;;16.91;73.76;100921.78;5076069;28;20206;-80
2023/10/05 00:56:55;;;;;;;6.23;0.57;;;;;;;16.99;73.85;100931.13;5073856;28;20732;-80
2023/10/05 00:59:21;;;;;;;2.47;1.70;;;;;;;16.93;73.42;100911.25;5075081;28;20201;-80
2023/10/05 01:05:15;;;;;;;9.17;2.23;;;;;;;16.96;73.02;100910.56;5075145;28;20562;-79
2023/10/05 01:07:18;;;;;;;2.63;2.13;;;;;;;16.98;73.46;100921.25;5067133;28;20239;-76
2023/10/05 01:12:39;;;;;;;0.90;0.67;;;;;;;16.64;74.38;100899.19;5073518;28;20190;-79
2023/10/05 01:15:06;;;;;;;0.33;0.33;;;;;;;17.00;73.82;100919.75;5074426;28;20256;-78
2023/10/05 01:17:35;;;;;;;8.67;1.67;;;;;;;16.77;74.45;100911.06;5074813;28;20264;-79
2023/10/05 01:22:39;;;;;;;5.30;2.40;;;;;;;16.59;74.96;100901.34;5073931;28;20228;-80
2023/10/05 01:25:05;;;;;;;7.00;0.83;;;;;;;16.91;74.68;100919.03;5074196;28;20247;-80
2023/10/05 01:27:36;;;;;;;3.13;1.90;;;;;;;16.83;74.53;100904.19;5074330;28;20175;-80
2023/10/05 01:30:03;;;;;;;3.43;2.57;;;;;;;17.03;74.09;100919.06;5073957;28;20663;-79
2023/10/05 01:32:28;;;;;;;3.53;1.70;;;;;;;16.87;74.22;100913.41;5072119;28;20178;-80
2023/10/05 01:34:54;;;;;;;2.03;1.10;;;;;;;17.00;74.61;100922.50;5072365;28;20583;-80
2023/10/05 01:37:25;;;;;;;2.93;1.70;;;;;;;16.93;74.24;100914.00;5073726;28;20198;-78
2023/10/05 01:39:50;;;;;;;0.33;0.23;;;;;;;17.09;73.78;100912.19;5072280;28;20197;-80
2023/10/05 01:42:18;;;;;;;5.50;1.53;;;;;;;17.12;73.59;100902.41;5072387;28;20604;-80
2023/10/05 01:44:49;;;;;;;5.30;1.43;;;;;;;17.14;73.47;100906.41;5075545;28;20198;-79
2023/10/05 01:47:16;;;;;;;0.00;0.00;;;;;;;17.46;73.34;100923.22;5074155;28;20240;-80
2023/10/05 01:49:45;;;;;;;9.27;1.40;;;;;;;17.38;72.68;100908.38;5073865;28;20227;-78
2023/10/05 01:52:16;;;;;;;0.80;0.60;;;;;;;17.36;72.99;100907.09;5073286;28;20190;-79
2023/10/05 01:54:43;;;;;;;5.13;1.53;;;;;;;17.07;73.71;100884.13;5073675;28;20885;-79
2023/10/05 01:57:15;;;;;;;4.87;1.27;;;;;;;17.11;74.18;100886.97;5072133;28;20198;-79
2023/10/05 01:59:41;;;;;;;2.57;0.93;;;;;;;17.12;74.40;100883.88;5073093;28;20261;-79
2023/10/05 02:02:15;;;;;;;0.33;0.33;;;;;;;17.53;73.17;100899.41;5072693;28;20296;-79
2023/10/05 02:04:43;;;;;;;1.67;0.90;;;;;;;17.24;73.77;100883.88;5073131;28;20206;-79
2023/10/05 02:07:12;;;;;;;1.53;0.43;;;;;;;17.50;73.41;100907.56;5072961;28;20183;-78
2023/10/05 02:09:38;;;;;;;9.80;3.27;;;;;;;17.33;73.34;100900.31;5071514;28;20185;-79
2023/10/05 02:12:06;;;;;;;12.43;2.77;;;;;;;16.90;74.83;100878.78;5072737;28;20644;-78
2023/10/05 02:14:32;;;;;;;3.63;2.03;;;;;;;17.00;74.94;100878.34;5072106;28;20202;-79
2023/10/05 02:16:58;;;;;;;2.03;1.87;;;;;;;16.83;75.69;100875.81;5072380;28;20243;-79
2023/10/05 02:19:23;;;;;;;1.83;1.73;;;;;;;17.31;74.96;100894.34;5072948;28;20190;-79
2023/10/05 02:21:53;;;;;;;4.60;2.20;;;;;;;16.99;75.33;100871.22;5070734;28;20216;-79
2023/10/05 02:24:19;;;;;;;0.10;0.10;;;;;;;17.49;75.02;100900.41;5071130;28;20828;-80
2023/10/05 02:27:09;;;;;;;2.80;1.27;;;;;;;17.46;74.56;100899.16;5072804;28;20186;-79
2023/10/05 02:29:32;;;;;;;0.57;0.57;;;;;;;17.38;74.61;100871.69;5072256;28;20190;-80
2023/10/05 02:37:01;;;;;;;1.90;0.97;;;;;;;17.43;74.50;100869.47;5071727;28;20316;-79
2023/10/05 02:39:27;;;;;;;6.67;2.80;;;;;;;17.37;74.45;100865.34;5071843;28;20194;-78
2023/10/05 02:41:54;;;;;;;0.53;0.53;;;;;;;17.34;74.34;100865.22;5071259;28;20550;-79
2023/10/05 02:44:29;;;;;;;1.17;0.97;;;;;;;17.25;74.63;100860.63;5070913;28;20208;-80
2023/10/05 02:46:54;;;;;;;3.27;1.87;;;;;;;17.22;74.73;100847.53;5072325;28;20188;-79
2023/10/05 02:49:22;;;;;;;3.70;2.27;;;;;;;17.31;74.98;100877.75;5072673;28;20178;-79
2023/10/05 02:51:47;;;;;;;6.97;2.77;;;;;;;17.09;75.81;100864.44;5072079;28;20249;-79
2023/10/05 02:54:14;;;;;;;0.57;0.57;;;;;;;17.40;74.92;100877.66;5071073;28;20244;-79
2023/10/05 02:56:42;;;;;;;9.00;2.13;;;;;;;17.44;74.61;100875.81;5072154;28;20190;-79
2023/10/05 02:59:09;;;;;;;0.00;0.00;;;;;;;17.38;74.54;100866.97;5071059;28;20179;-79
2023/10/05 03:01:37;;;;;;;15.07;0.93;;;;;;;17.66;73.84;100871.75;5070279;28;20219;-78
2023/10/05 03:06:41;;;;;;;0.70;0.70;;;;;;;17.37;74.45;100862.59;5072636;28;20682;-78
2023/10/05 03:09:07;;;;;;;4.57;1.70;;;;;;;17.33;74.16;100852.56;5070656;28;20189;-78
2023/10/05 03:11:46;;;;;;;1.90;1.10;;;;;;;17.46;74.19;100867.97;5069715;28;20235;-78
2023/10/05 03:14:12;;;;;;;8.10;3.33;;;;;;;17.27;74.31;100846.47;5071607;28;20761;-78
2023/10/05 03:16:47;;;;;;;1.33;0.87;;;;;;;17.40;74.34;100861.88;5070164;28;20198;-78
2023/10/05 03:19:21;;;;;;;7.13;2.53;;;;;;;17.27;73.85;100848.44;5071587;28;20638;-78
2023/10/05 03:21:51;;;;;;;4.33;2.33;;;;;;;17.19;74.60;100847.38;5070787;28;20195;-77
2023/10/05 03:24:18;;;;;;;5.40;1.40;;;;;;;17.23;74.99;100851.88;5071610;28;20199;-79
2023/10/05 03:26:44;;;;;;;0.80;0.80;;;;;;;17.18;75.08;100848.53;5073730;28;20178;-80
2023/10/05 03:29:11;;;;;;;11.90;2.50;;;;;;;17.18;74.90;100843.03;5077458;28;20247;-79
2023/10/05 03:31:43;;;;;;;1.30;1.03;;;;;;;17.36;74.72;100862.91;5076864;28;20182;-80
2023/10/05 03:34:09;;;;;;;6.77;1.53;;;;;;;17.21;74.25;100843.16;5077560;28;20251;-79
2023/10/05 03:36:35;;;;;;;5.10;1.30;;;;;;;17.21;74.61;100843.16;5075955;28;20278;-79
2023/10/05 03:39:06;;;;;;;9.07;0.67;;;;;;;17.32;74.52;100856.47;5077241;28;20221;-80
2023/10/05 03:41:32;;;;;;;4.70;1.07;;;;;;;17.52;73.85;100861.06;5076574;28;20277;-80
2023/10/05 03:44:01;;;;;;;8.93;1.60;;;;;;;17.64;73.23;100860.22;5076943;28;20236;-79
2023/10/05 03:46:26;;;;;;;1.20;1.10;;;;;;;17.51;73.65;100851.97;5076792;28;20181;-78
2023/10/05 03:49:06;;;;;;;0.77;0.77;;;;;;;17.58;73.51;100864.38;5075742;28;20190;-79
2023/10/05 03:51:32;;;;;;;1.13;0.97;;;;;;;17.29;73.93;100860.75;5074875;28;20186;-80
2023/10/05 03:53:58;;;;;;;6.47;1.47;;;;;;;17.39;74.22;100857.50;5076840;28;20336;-80
2023/10/05 03:56:25;;;;;;;7.93;2.47;;;;;;;17.43;73.63;100849.34;5075256;28;20208;-79
2023/10/05 03:58:53;;;;;;;2.53;1.50;;;;;;;17.34;73.72;100848.63;5076471;28;20637;-79
2023/10/05 04:01:20;;;;;;;1.73;1.33;;;;;;;17.19;74.65;100855.66;5075606;28;20814;-79
2023/10/05 04:03:48;;;;;;;17.60;1.60;;;;;;;17.41;74.21;100868.22;5076128;28;20225;-79
2023/10/05 04:06:17;;;;;;;1.23;1.07;;;;;;;17.52;73.12;100855.53;5076372;28;20244;-79
2023/10/05 04:08:51;;;;;;;1.30;1.20;;;;;;;17.64;73.58;100866.53;5074665;28;20186;-80
2023/10/05 04:11:17;;;;;;;1.00;1.00;;;;;;;17.33;74.29;100855.31;5074049;28;20660;-79
2023/10/05 04:13:43;;;;;;;2.60;2.40;;;;;;;17.21;73.90;100842.31;5074326;28;20297;-80
2023/10/05 04:16:21;;;;;;;9.23;1.60;;;;;;;17.23;74.40;100854.66;5075542;28;20182;-80
2023/10/05 04:18:50;;;;;;;3.27;2.27;;;;;;;17.16;74.45;100837.84;5074356;28;20265;-78
2023/10/05 04:21:16;;;;;;;12.10;3.27;;;;;;;17.03;75.05;100829.91;5074779;28;20202;-78
2023/10/05 04:23:45;;;;;;;5.20;1.90;;;;;;;17.14;75.07;100837.38;5075634;28;20600;-79
2023/10/05 04:26:10;;;;;;;1.93;1.20;;;;;;;17.33;74.57;100847.03;5075487;28;20185;-79
2023/10/05 04:28:40;;;;;;;4.30;1.57;;;;;;;17.39;74.09;100851.19;5075178;28;20644;-80
2023/10/05 04:31:11;;;;;;;5.93;1.07;;;;;;;17.23;74.82;100831.75;5074939;28;20205;-78
2023/10/05 04:33:39;;;;;;;2.70;2.07;;;;;;;16.94;75.36;100825.31;5073635;28;20206;-79
2023/10/05 04:36:05;;;;;;;1.30;1.20;;;;;;;17.18;75.18;100832.78;5075365;28;20546;-78
2023/10/05 04:38:31;;;;;;;4.30;2.67;;;;;;;16.93;75.78;100818.19;5073759;28;20202;-79
2023/10/05 04:40:58;;;;;;;2.50;1.73;;;;;;;16.90;76.33;100818.88;5073481;28;20210;-79
2023/10/05 04:43:23;;;;;;;5.53;2.03;;;;;;;16.92;76.49;100824.03;5072954;28;20202;-80
2023/10/05 04:45:51;;;;;;;3.27;1.27;;;;;;;16.83;77.13;100813.13;5075218;28;20243;-79
2023/10/05 04:48:18;;;;;;;13.17;3.73;;;;;;;16.98;76.49;100819.91;5076082;28;20181;-80
2023/10/05 04:50:43;;;;;;;1.70;1.60;;;;;;;17.04;76.33;100826.81;5073966;28;20640;-78
2023/10/05 04:53:10;;;;;;;5.17;2.87;;;;;;;17.00;76.53;100822.31;5075038;28;20199;-78
2023/10/05 04:55:45;;;;;;;4.10;2.33;;;;;;;17.06;76.90;100837.50;5074995;28;20218;-78
2023/10/05 04:58:31;;;;;;;4.73;2.93;;;;;;;16.95;77.01;100826.94;5075082;28;20260;-79
2023/10/05 05:06:11;;;;;;;7.20;4.63;;;;;;;16.80;77.25;100813.00;5074778;28;20221;-79
2023/10/05 05:08:41;;;;;;;12.00;3.40;;;;;;;16.83;77.08;100821.41;5072901;28;20174;-80
2023/10/05 05:11:11;;;;;;;3.33;3.03;;;;;;;17.02;77.25;100837.38;5072811;28;20185;-79
2023/10/05 05:13:38;;;;;;;5.53;4.47;;;;;;;16.79;77.36;100827.97;5074265;28;20570;-79
2023/10/05 05:16:05;;;;;;;7.37;3.23;;;;;;;16.93;77.77;100834.75;5073058;28;20194;-79
2023/10/05 05:18:31;;;;;;;2.67;1.47;;;;;;;16.99;77.65;100838.09;5073073;28;20210;-78
2023/10/05 05:20:56;;;;;;;1.40;0.93;;;;;;;16.90;78.01;100840.13;5072752;28;20189;-78
2023/10/05 05:23:21;;;;;;;2.20;1.97;;;;;;;16.92;78.08;100844.19;5072137;28;20198;-80
2023/10/05 05:25:51;;;;;;;5.07;3.17;;;;;;;17.19;78.18;100863.94;5074009;28;20379;-78
2023/10/05 05:28:17;;;;;;;5.13;3.70;;;;;;;16.68;77.69;100824.84;5073859;28;20170;-79
2023/10/05 05:30:42;;;;;;;4.67;3.63;;;;;;;16.85;78.05;100835.66;5072203;28;20180;-78
2023/10/05 05:33:10;;;;;;;6.43;4.27;;;;;;;17.05;77.51;100844.97;5073533;28;20205;-79
2023/10/05 05:35:37;;;;;;;1.80;1.70;;;;;;;16.96;77.97;100841.53;5072176;28;20662;-79
2023/10/05 05:38:02;;;;;;;4.33;4.03;;;;;;;16.85;77.84;100832.91;5072387;28;20213;-79
2023/10/05 05:40:28;;;;;;;5.77;4.37;;;;;;;16.82;77.51;100821.75;5071858;28;20183;-79
2023/10/05 05:42:55;;;;;;;4.50;4.10;;;;;;;16.98;77.37;100841.19;5073000;28;20170;-80
2023/10/05 05:45:21;;;;;;;9.37;4.97;;;;;;;16.95;77.09;100832.47;5073219;28;20178;-78
2023/10/05 05:47:47;;;;;;;2.40;2.30;;;;;;;17.03;77.07;100843.72;5073441;28;20644;-79
2023/10/05 05:50:22;;;;;;;8.33;4.47;;;;;;;16.87;77.50;100838.88;5072669;28;20224;-79
2023/10/05 05:52:48;;;;;;;12.07;4.40;;;;;;;16.85;77.57;100826.56;5071925;28;20186;-79
2023/10/05 05:55:17;;;;;;;5.10;4.13;;;;;;;16.88;77.92;100834.16;5071642;28;20184;-78
2023/10/05 05:57:42;;;;;;;3.57;3.30;;;;;;;17.03;76.82;100827.94;5071926;28;20190;-78
2023/10/05 06:00:11;;;;;;;3.77;3.47;;;;;;;16.76;77.99;100832.19;5064736;28;20719;-78
2023/10/05 06:02:40;;;;;;;5.80;2.70;;;;;;;16.96;77.72;100852.59;5071361;28;20648;-77
2023/10/05 06:05:09;;;;;;;2.83;2.27;;;;;;;17.05;77.76;100869.81;5070912;28;20252;-78
2023/10/05 06:07:39;;;;;;;13.33;2.70;;;;;;;16.94;77.68;100852.13;5072347;28;20223;-78
2023/10/05 06:10:12;;;;;;;2.13;2.03;;;;;;;16.91;77.11;100848.06;5070647;28;20202;-79
2023/10/05 06:12:41;;;;;;;2.83;2.53;;;;;;;16.84;77.38;100845.09;5071461;28;20201;-79
2023/10/05 06:15:09;;;;;;;16.07;2.53;;;;;;;16.69;78.20;100853.25;5071774;28;20199;-80
2023/10/05 06:17:35;;;;;;;2.43;2.23;;;;;;;16.91;77.50;100856.34;5074373;28;20206;-79
2023/10/05 06:20:14;;;;;;;1.90;1.80;;;;;;;17.05;77.53;100869.00;5074313;28;20656;-79
2023/10/05 06:22:41;;;;;;;4.00;1.87;;;;;;;16.98;76.96;100858.56;5073368;28;20239;-80
2023/10/05 06:25:09;;;;;;;3.43;2.37;;;;;;;16.95;77.17;100864.78;5073364;28;20210;-80
2023/10/05 06:27:36;;;;;;;6.50;1.77;;;;;;;17.15;76.84;100866.59;5072828;28;20552;-81
2023/10/05 06:30:05;;;;;;;2.27;2.00;;;;;;;17.27;76.28;100873.28;5073733;28;20182;-81
2023/10/05 06:32:31;;;;;;;2.53;1.60;;;;;;;17.25;76.23;100868.13;5071722;28;20558;-81
2023/10/05 06:34:57;;;;;;;4.57;1.73;;;;;;;17.19;76.63;100873.03;5072919;28;20190;-83
2023/10/05 06:37:25;;;;;;;5.97;3.10;;;;;;;16.92;76.94;100855.22;5072677;28;20186;-84
2023/10/05 06:39:53;;;;;;;3.47;2.93;;;;;;;16.78;78.18;100854.75;5072234;28;20560;-80
2023/10/05 06:42:18;;;;;;;2.57;2.10;;;;;;;16.86;78.23;100867.63;5072406;28;20182;-80
2023/10/05 06:44:44;;;;;;;0.90;0.90;;;;;;;17.12;77.53;100881.13;5071408;28;20680;-88
2023/10/05 06:47:34;;;;;;;4.00;1.80;;;;;;;17.08;77.84;100890.44;5075339;28;20171;-79
2023/10/05 06:49:58;;;;;;;2.67;1.47;;;;;;;17.10;77.73;100877.09;5074725;28;20264;-81
2023/10/05 06:52:24;;;;;;;4.73;2.30;;;;;;;16.89;78.36;100855.91;5074413;28;20217;-80
2023/10/05 06:54:50;;;;;;;4.87;1.03;;;;;;;16.96;78.81;100877.44;5074301;28;20728;-81
2023/10/05 06:57:16;;;;;;;2.07;1.87;;;;;;;16.99;78.34;100873.16;5073703;28;20536;-80
2023/10/05 06:59:42;;;;;;;6.83;2.07;;;;;;;17.02;78.60;100870.50;5071893;28;20665;-80
2023/10/05 07:02:08;;;;;;;3.77;3.47;;;;;;;16.66;79.41;100855.50;5076825;28;20702;-81
2023/10/05 07:04:33;;;;;;;4.43;2.33;;;;;;;16.94;80.05;100879.72;5079993;28;20193;-81
2023/10/05 07:06:58;;;;;;;10.07;4.43;;;;;;;16.65;80.66;100870.44;5080370;28;20256;-79
2023/10/05 07:09:26;;;;;;;4.47;2.87;;;;;;;16.92;80.88;100879.25;5079989;28;20170;-79
2023/10/05 07:11:52;;;;;;;2.20;2.00;;;;;;;17.16;80.47;100897.78;5079203;28;20174;-79
2023/10/05 07:14:18;;;;;;;12.80;4.33;;;;;;;17.14;79.75;100887.09;5078946;28;20279;-79
2023/10/05 07:16:43;;;;;;;6.17;5.57;;;;;;;16.93;80.30;100883.63;5079036;28;20186;-78
2023/10/05 07:19:09;;;;;;;6.97;6.03;;;;;;;16.93;79.75;100889.16;5077595;28;20212;-77
2023/10/05 07:21:34;;;;;;;20.03;7.57;;;;;;;16.77;79.67;100886.22;5077952;28;20738;-79
2023/10/05 07:23:59;;;;;;;3.77;3.43;;;;;;;17.27;78.82;100909.19;5077360;28;20315;-81
2023/10/05 07:26:25;;;;;;;12.43;7.03;;;;;;;17.14;78.74;100897.34;5080233;28;20188;-83
2023/10/05 07:28:51;;;;;;;7.77;6.80;;;;;;;17.13;78.45;100893.75;5072940;28;20550;-78
2023/10/05 07:31:16;;;;;;;3.00;2.80;;;;;;;17.49;77.27;100923.31;5071171;28;20194;-79
2023/10/05 07:33:42;;;;;;;10.27;5.00;;;;;;;17.54;76.72;100914.03;5079860;28;20212;-81
2023/10/05 07:36:08;;;;;;;5.27;4.67;;;;;;;17.49;76.08;100937.13;5078750;28;20174;-79
2023/10/05 07:38:34;;;;;;;5.97;5.47;;;;;;;17.40;75.88;100911.59;5077085;28;20242;-83
2023/10/05 07:41:03;;;;;;;5.20;4.80;;;;;;;17.67;75.69;100943.25;5078218;28;20259;-85
2023/10/05 07:43:28;;;;;;;7.40;5.83;;;;;;;17.45;75.63;100914.13;5080525;28;20193;-87
2023/10/05 07:45:54;;;;;;;12.53;6.03;;;;;;;17.55;75.57;100929.44;5097849;28;20643;-85
2023/10/05 07:48:19;;;;;;;7.73;5.57;;;;;;;17.45;75.68;100929.91;5096486;28;20224;-88
2023/10/05 07:50:48;;;;;;;8.33;6.87;;;;;;;17.52;75.96;100938.44;5085719;28;20186;-86
2023/10/05 07:53:14;;;;;;;13.47;5.97;;;;;;;17.58;75.38;100928.75;5077272;28;20698;-88
2023/10/05 07:55:39;;;;;;;12.47;7.03;;;;;;;17.50;76.00;100918.59;5089349;28;20181;-83
2023/10/05 07:58:05;;;;;;;14.37;8.03;;;;;;;17.39;76.35;100947.88;5098201;28;20206;-80
2023/10/05 08:00:32;;;;;;;8.73;6.00;;;;;;;17.53;76.12;100960.19;5098111;28;20181;-80
2023/10/05 08:02:58;;;;;;;8.57;5.53;;;;;;;17.78;74.90;100955.44;5097751;28;20169;-79
2023/10/05 08:05:23;;;;;;;5.53;5.07;;;;;;;17.64;75.13;100957.75;5098025;28;20625;-79
2023/10/05 08:07:49;;;;;;;20.90;2.93;;;;;;;17.88;75.22;100978.25;5082820;28;20209;-81
2023/10/05 08:10:19;;;;;;;4.77;4.47;;;;;;;17.86;75.48;100981.38;5086168;28;20207;-79
2023/10/05 08:12:46;;;;;;;3.60;3.13;;;;;;;17.85;75.26;100971.47;5095473;28;20271;-81
2023/10/05 08:15:18;;;;;;;3.90;3.60;;;;;;;18.08;74.66;100986.44;5093375;28;20699;-79
2023/10/05 08:17:44;;;;;;;7.83;5.83;;;;;;;17.78;75.14;100969.28;5086576;28;20281;-80
2023/10/05 08:20:10;;;;;;;4.23;3.93;;;;;;;17.91;75.04;100977.56;5094554;28;20273;-79
2023/10/05 08:22:36;;;;;;;12.10;4.53;;;;;;;18.09;74.28;100976.16;5092952;28;20738;-80
2023/10/05 08:25:10;;;;;;;9.23;4.23;;;;;;;18.21;73.66;100987.16;5093504;28;20637;-80
2023/10/05 08:27:36;;;;;;;5.73;4.63;;;;;;;18.19;73.55;100983.97;5094529;28;20193;-79
2023/10/05 08:30:02;;;;;;;6.17;3.47;;;;;;;18.10;73.41;100980.53;5094418;28;20567;-77
2023/10/05 08:32:27;;;;;;;7.00;6.00;;;;;;;17.90;73.67;100967.66;5094015;28;20182;-80
2023/10/05 08:34:53;;;;;;;4.47;4.17;;;;;;;18.29;73.34;100986.25;5093478;28;20233;-81
2023/10/05 08:37:22;;;;;;;4.27;3.63;;;;;;;18.37;73.30;100984.47;5093036;28;20206;-80
2023/10/05 08:39:47;;;;;;;9.90;5.50;;;;;;;18.44;72.77;100988.28;5093215;28;20197;-81
2023/10/05 08:42:16;;;;;;;4.17;3.47;;;;;;;18.55;72.75;100985.00;5085305;28;20173;-80
2023/10/05 08:44:43;;;;;;;5.27;4.27;;;;;;;18.37;72.35;100970.63;5092927;28;20697;-80
2023/10/05 08:47:12;;;;;;;5.70;5.20;;;;;;;18.38;72.34;100978.63;5093034;28;20182;-77
2023/10/05 08:49:38;;;;;;;6.33;5.20;;;;;;;18.63;72.04;100992.34;5093865;28;20188;-80
2023/10/05 08:52:13;;;;;;;2.53;2.13;;;;;;;19.12;71.25;101019.84;5092558;28;20211;-81
2023/10/05 08:54:39;;;;;;;5.03;4.53;;;;;;;18.67;71.42;100994.09;5094043;28;20230;-77
2023/10/05 08:57:10;;;;;;;5.23;4.27;;;;;;;18.65;71.52;100996.41;5093777;28;20194;-76
2023/10/05 08:59:45;;;;;;;4.10;3.73;;;;;;;18.64;71.15;100994.78;5093242;28;20182;-79
2023/10/05 09:02:11;;;;;;;8.20;3.93;;;;;;;18.77;71.59;101017.69;5094957;28;20211;-81
2023/10/05 09:04:43;;;;;;;4.63;3.60;;;;;;;18.56;71.29;100992.16;5094260;28;20205;-81
2023/10/05 09:07:25;;;;;;;5.67;5.17;;;;;;;18.56;71.54;101009.56;5095553;28;20227;-81
2023/10/05 09:09:56;;;;;;;6.07;5.40;;;;;;;18.41;72.24;101005.56;5095054;28;20182;-79
2023/10/05 09:12:34;;;;;;;3.57;2.03;;;;;;;19.07;71.58;101058.84;5094937;28;20189;-79
2023/10/05 09:18:06;;;;;;;7.33;3.63;;;;;;;18.83;71.10;101026.56;5094810;28;20196;-79
2023/10/05 09:20:37;;;;;;;7.30;4.17;;;;;;;18.57;71.33;101019.47;5095010;28;20265;-78
2023/10/05 09:23:05;;;;;;;5.03;3.63;;;;;;;18.79;71.54;101045.81;5092687;28;20263;-77
2023/10/05 09:25:35;;;;;;;5.27;4.30;;;;;;;18.92;71.00;101041.84;5092977;28;20177;-77
2023/10/05 09:28:14;;;;;;;4.83;4.20;;;;;;;18.88;71.24;101035.41;5092989;28;20170;-80
2023/10/05 09:30:57;;;;;;;21.73;4.20;;;;;;;19.03;71.28;101051.25;5092818;28;20191;-80
2023/10/05 09:33:27;;;;;;;6.30;3.33;;;;;;;18.80;70.46;101030.00;5092596;28;20202;-79
2023/10/05 09:36:01;;;;;;;3.90;2.50;;;;;;;19.09;70.41;101056.53;5091756;28;20186;-79
2023/10/05 09:38:29;;;;;;;4.03;2.60;;;;;;;19.25;70.25;101074.03;5091323;28;20204;-77
2023/10/05 09:40:55;;;;;;;4.13;2.83;;;;;;;18.76;70.53;101035.47;5093104;28;20169;-79
2023/10/05 09:43:22;;;;;;;1.50;1.40;;;;;;;18.98;70.72;101057.06;5092392;28;20339;-79
2023/10/05 09:45:56;;;;;;;2.93;2.60;;;;;;;19.00;70.57;101049.22;5091615;28;20185;-78
2023/10/05 09:48:24;;;;;;;1.53;1.43;;;;;;;19.08;70.02;101054.94;5092699;28;20177;-81
2023/10/05 09:50:52;;;;;;;3.43;2.23;;;;;;;19.16;70.14;101067.81;5092665;28;20315;-77
2023/10/05 09:53:18;;;;;;;3.40;2.47;;;;;;;19.26;69.95;101067.31;5091896;28;20202;-77
2023/10/05 09:55:46;;;;;;;2.87;2.07;;;;;;;19.29;70.49;101074.91;5092632;28;20239;-80
2023/10/05 09:58:13;;;;;;;2.63;2.40;;;;;;;19.45;70.05;101072.97;5092547;28;20209;-77
2023/10/05 10:03:05;;;;;;;2.10;1.93;;;;;;;19.38;69.89;101075.53;5093572;28;20651;-79
2023/10/05 10:05:44;;;;;;;11.10;3.17;;;;;;;19.69;69.29;101088.69;5092830;28;20177;-77
2023/10/05 10:08:14;;;;;;;4.77;2.43;;;;;;;19.42;69.31;101051.50;5092554;28;20185;-79
2023/10/05 10:10:51;;;;;;;2.27;2.07;;;;;;;19.40;68.77;101073.25;5091163;28;20185;-80
2023/10/05 10:13:21;;;;;;;10.23;3.23;;;;;;;19.47;68.91;101073.41;5092187;28;20267;-79
2023/10/05 10:15:47;;;;;;;1.70;1.60;;;;;;;19.62;69.23;101080.16;5086820;28;20701;-80
2023/10/05 10:18:15;;;;;;;3.47;2.47;;;;;;;19.60;69.02;101058.34;5091380;28;20202;-78
2023/10/05 10:20:49;;;;;;;4.03;1.83;;;;;;;19.79;69.35;101079.78;5093060;28;20193;-77
2023/10/05 10:23:22;;;;;;;2.60;2.40;;;;;;;19.86;69.52;101084.72;5092497;28;20204;-78
2023/10/05 10:25:50;;;;;;;16.60;3.33;;;;;;;19.80;69.03;101058.41;5093323;28;20678;-77
2023/10/05 10:28:37;;;;;;;5.13;2.03;;;;;;;19.82;68.70;101069.97;5091483;28;20182;-78
2023/10/05 10:31:13;;;;;;;4.10;1.23;;;;;;;20.16;68.00;101091.41;5092353;28;20178;-79
2023/10/05 10:33:40;;;;;;;1.50;1.40;;;;;;;19.76;67.96;101054.75;5092507;28;20202;-78
2023/10/05 10:36:18;;;;;;;12.47;1.20;;;;;;;20.04;67.45;101069.31;5092180;28;20254;-77
2023/10/05 10:38:44;;;;;;;3.00;2.00;;;;;;;19.95;67.54;101054.81;5092414;28;20200;-78
2023/10/05 10:41:10;;;;;;;10.60;1.87;;;;;;;19.94;67.34;101053.22;5092161;28;20230;-79
2023/10/05 10:43:37;;;;;;;4.50;2.67;;;;;;;19.80;67.50;101064.78;5066751;28;20676;-77
2023/10/05 10:46:14;;;;;;;1.73;1.63;;;;;;;19.75;67.80;101058.69;5073250;28;20552;-79
2023/10/05 10:48:53;;;;;;;6.70;2.47;;;;;;;19.91;67.00;101074.16;5083587;28;20170;-78
2023/10/05 10:51:21;;;;;;;1.77;1.50;;;;;;;19.61;67.49;101065.50;5092353;28;20264;-78
2023/10/05 10:53:50;;;;;;;4.87;2.93;;;;;;;19.69;67.58;101057.38;5090716;28;20210;-77
2023/10/05 10:56:21;;;;;;;10.83;1.93;;;;;;;19.74;67.75;101074.53;5093050;28;20173;-78
2023/10/05 10:58:56;;;;;;;8.73;1.83;;;;;;;19.83;67.67;101077.13;5091670;28;20292;-78
2023/10/05 11:01:28;;;;;;;3.63;1.63;;;;;;;19.82;67.73;101073.56;5076893;28;20272;-78
2023/10/05 11:04:00;;;;;;;2.83;1.97;;;;;;;19.73;67.41;101047.97;5085307;28;20242;-79
2023/10/05 11:06:28;;;;;;;1.37;1.27;;;;;;;19.67;67.35;101054.94;5091040;28;20177;-79
2023/10/05 11:08:59;;;;;;;2.70;0.97;;;;;;;19.91;67.13;101073.34;5090945;28;20189;-77
2023/10/05 11:11:25;;;;;;;6.13;1.57;;;;;;;19.80;67.15;101062.00;5090033;28;20178;-79
2023/10/05 11:13:56;;;;;;;3.13;1.30;;;;;;;19.85;67.18;101042.31;5090704;28;20251;-77
2023/10/05 11:16:33;;;;;;;1.47;1.33;;;;;;;20.11;66.61;101080.59;5090797;28;20764;-77
2023/10/05 11:19:00;;;;;;;1.40;1.07;;;;;;;20.03;66.88;101067.72;5090927;28;20184;-79
2023/10/05 11:21:26;;;;;;;1.17;0.97;;;;;;;19.88;67.04;101065.75;5091577;28;20186;-79
2023/10/05 11:24:00;;;;;;;2.50;1.67;;;;;;;19.70;67.38;101045.91;5073620;28;20209;-77
2023/10/05 11:26:28;;;;;;;3.30;1.97;;;;;;;19.62;67.49;101057.97;5081035;28;20248;-77
2023/10/05 11:28:56;;;;;;;2.70;1.10;;;;;;;19.77;67.00;101051.63;5074587;28;20182;-77
2023/10/05 11:31:23;;;;;;;1.60;1.17;;;;;;;19.81;66.98;101073.88;5068055;28;20238;-79
2023/10/05 11:33:53;;;;;;;4.90;1.40;;;;;;;19.82;67.19;101059.69;5078059;28;20193;-77
2023/10/05 11:36:22;;;;;;;6.93;1.00;;;;;;;19.87;67.06;101069.69;5091457;28;20265;-78
2023/10/05 11:38:57;;;;;;;0.43;0.40;;;;;;;20.07;67.06;101084.44;5076100;28;20209;-77
2023/10/05 11:41:30;;;;;;;3.50;1.70;;;;;;;19.82;66.82;101056.13;5070384;28;20179;-77
2023/10/05 11:43:58;;;;;;;3.60;1.53;;;;;;;19.73;67.19;101050.75;5083912;28;20232;-78
2023/10/05 11:46:24;;;;;;;2.90;0.93;;;;;;;19.82;67.04;101054.16;5065791;28;20194;-79
2023/10/05 11:48:51;;;;;;;11.93;1.97;;;;;;;19.83;66.90;101054.94;5085304;28;20261;-78
2023/10/05 11:51:19;;;;;;;1.17;0.87;;;;;;;20.03;67.03;101069.69;5086822;28;20244;-79
2023/10/05 11:53:46;;;;;;;1.50;0.53;;;;;;;20.25;66.51;101087.63;5089036;28;20254;-79
2023/10/05 11:56:12;;;;;;;1.83;1.60;;;;;;;20.13;66.78;101063.59;5086912;28;20205;-79
2023/10/05 11:58:40;;;;;;;0.73;0.73;;;;;;;20.17;66.20;101070.00;5088791;28;20202;-78
2023/10/05 12:01:06;;;;;;;1.47;0.40;;;;;;;20.28;66.44;101059.97;5079843;28;20251;-79
2023/10/05 12:03:32;;;;;;;1.43;0.80;;;;;;;19.78;66.59;101028.28;5076606;28;20681;-77